createdAt,value
2023-01-30T00:07:59.081Z,7.83
2023-01-30T00:18:01.702Z,8.13
2023-01-30T00:28:04.224Z,7.47
2023-01-30T00:38:06.737Z,7.40
2023-01-30T00:48:09.241Z,6.93
2023-01-30T00:58:13.321Z,6.30
2023-01-30T01:08:16.239Z,7.03
2023-01-30T01:18:18.752Z,7.33
2023-01-30T01:28:28.101Z,7.00
2023-01-30T01:38:30.642Z,7.75
2023-01-30T01:48:39.032Z,7.77
2023-01-30T01:58:51.550Z,6.87
2023-01-30T02:08:58.933Z,8.50
2023-01-30T02:19:01.797Z,7.20
2023-01-30T02:29:16.113Z,6.33
2023-01-30T02:39:21.684Z,7.50
2023-01-30T02:49:28.061Z,7.20
2023-01-30T02:59:43.785Z,6.80
2023-01-30T03:10:09.424Z,8.07
2023-01-30T03:20:20.512Z,7.03
2023-01-30T03:30:25.843Z,6.50
2023-01-30T03:40:35.700Z,8.13
2023-01-30T03:50:38.995Z,7.78
2023-01-30T04:00:41.971Z,7.57
2023-01-30T04:10:44.654Z,8.60
2023-01-30T04:20:47.653Z,7.45
2023-01-30T04:30:54.852Z,7.82
2023-01-30T04:41:09.131Z,9.63
2023-01-30T04:51:15.544Z,9.73
2023-01-30T05:01:25.604Z,11.50
2023-01-30T05:11:30.023Z,11.00
2023-01-30T05:21:32.603Z,11.83
2023-01-30T05:31:35.812Z,11.88
2023-01-30T05:41:38.460Z,12.07
2023-01-30T05:51:40.994Z,20.97
2023-01-30T06:01:43.573Z,11.52
2023-01-30T06:11:46.137Z,9.52
2023-01-30T06:21:48.599Z,12.20
2023-01-30T06:31:51.130Z,11.03
2023-01-30T06:41:53.769Z,10.25
2023-01-30T06:51:56.226Z,12.83
2023-01-30T07:01:58.765Z,13.03
2023-01-30T07:12:01.238Z,13.63
2023-01-30T07:22:03.804Z,10.97
2023-01-30T07:32:07.953Z,11.47
2023-01-30T07:42:10.544Z,10.23
2023-01-30T07:52:13.081Z,11.65
2023-01-30T08:02:15.595Z,11.23
2023-01-30T08:12:18.127Z,13.30
2023-01-30T08:22:20.736Z,11.82
2023-01-30T08:32:23.331Z,13.20
2023-01-30T08:42:25.845Z,14.13
2023-01-30T08:52:28.317Z,18.13
2023-01-30T09:02:31.110Z,12.63
2023-01-30T09:12:33.816Z,11.00
2023-01-30T09:22:37.324Z,13.10
2023-01-30T09:32:39.984Z,11.70
2023-01-30T09:43:11.290Z,11.70
2023-01-30T09:53:25.943Z,11.40
2023-01-30T10:03:37.303Z,11.43
2023-01-30T10:14:16.533Z,11.93
2023-01-30T10:25:23.954Z,8.83
2023-01-30T10:35:32.234Z,9.43
2023-01-30T10:45:43.570Z,11.73
2023-01-30T10:55:52.973Z,10.97
2023-01-30T11:06:01.772Z,8.88
2023-01-30T11:16:08.405Z,10.47
2023-01-30T11:26:21.788Z,9.77
2023-01-30T11:36:32.199Z,8.70
2023-01-30T11:46:38.377Z,7.93
2023-01-30T11:56:47.418Z,9.07
2023-01-30T12:07:06.529Z,7.70
2023-01-30T12:17:11.804Z,8.30
2023-01-30T12:27:28.392Z,9.67
2023-01-30T12:37:53.764Z,8.77
2023-01-30T12:48:17.997Z,7.70
2023-01-30T12:58:38.947Z,8.98
2023-01-30T13:08:44.337Z,9.57
2023-01-30T13:19:03.221Z,9.43
2023-01-30T13:29:30.656Z,11.55
2023-01-30T13:39:54.449Z,8.47
2023-01-30T13:50:18.879Z,7.13
2023-01-30T14:00:21.827Z,5.63
2023-01-30T14:10:27.707Z,6.93
2023-01-30T14:20:33.699Z,8.10
2023-01-30T14:30:48.480Z,7.70
2023-01-30T14:41:02.842Z,6.43
2023-01-30T14:51:30.334Z,6.83
2023-01-30T15:02:10.382Z,7.77
2023-01-30T15:12:24.847Z,13.35
2023-01-30T15:23:04.298Z,9.20
2023-01-30T15:33:22.813Z,13.23
2023-01-30T15:43:44.501Z,15.88
2023-01-30T15:53:48.106Z,18.27
2023-01-30T16:03:53.305Z,17.30
2023-01-30T16:13:55.951Z,20.98
2023-01-30T16:24:04.430Z,14.75
2023-01-30T16:34:32.161Z,15.43
2023-01-30T16:44:34.687Z,14.20
2023-01-30T16:54:39.670Z,13.60
2023-01-30T17:04:43.350Z,17.90
2023-01-30T17:14:45.914Z,15.63
2023-01-30T17:24:48.708Z,27.00
2023-01-30T17:34:52.675Z,21.87
2023-01-30T17:44:55.263Z,22.50
2023-01-30T17:54:59.043Z,22.15
2023-01-30T18:05:01.603Z,29.00
2023-01-30T18:15:04.665Z,16.80
2023-01-30T18:25:07.872Z,21.90
2023-01-30T18:35:10.710Z,21.77
2023-01-30T18:45:13.519Z,17.83
2023-01-30T18:55:16.370Z,21.33
2023-01-30T19:05:19.964Z,17.33
2023-01-30T19:15:23.107Z,16.20
2023-01-30T19:25:25.879Z,21.00
2023-01-30T19:35:28.660Z,19.35
2023-01-30T19:45:32.801Z,17.55
2023-01-30T19:55:35.704Z,13.60
2023-01-30T20:05:39.778Z,14.37
2023-01-30T20:15:42.514Z,21.42
2023-01-30T20:25:46.617Z,18.70
2023-01-30T20:35:49.615Z,18.20
2023-01-30T20:46:03.399Z,17.02
2023-01-30T20:56:07.162Z,14.90
2023-01-30T21:06:10.015Z,14.73
2023-01-30T21:16:19.048Z,16.23
2023-01-30T21:26:23.671Z,12.07
2023-01-30T21:36:26.949Z,6.10
2023-01-30T21:46:36.836Z,5.40
2023-01-30T21:56:40.480Z,6.97
2023-01-30T22:06:44.217Z,8.53
2023-01-30T22:16:46.904Z,6.07
2023-01-30T22:26:50.689Z,6.53
2023-01-30T22:36:54.271Z,3.70
2023-01-30T22:46:56.772Z,2.17
2023-01-30T22:56:59.219Z,0.90
2023-01-30T23:07:01.777Z,0.80
2023-01-30T23:17:24.625Z,0.50
2023-01-30T23:27:27.173Z,0.30
2023-01-30T23:37:50.374Z,0.20
2023-01-30T23:47:52.927Z,0.20
2023-01-30T23:57:55.429Z,0.23
